createdAt,value
2017-08-01T00:01:20.620Z,7.43
2017-08-01T00:03:48.213Z,7.30
2017-08-01T00:06:15.776Z,7.40
2017-08-01T00:08:43.312Z,6.77
2017-08-01T00:11:10.848Z,7.43
2017-08-01T00:13:38.452Z,6.73
2017-08-01T00:16:06.001Z,6.80
2017-08-01T00:18:33.536Z,7.27
2017-08-01T00:21:01.872Z,8.13
2017-08-01T00:23:29.405Z,7.50
2017-08-01T00:25:56.941Z,7.50
2017-08-01T00:28:24.529Z,7.50
2017-08-01T00:30:52.073Z,7.20
2017-08-01T00:33:19.612Z,7.40
2017-08-01T00:35:47.556Z,7.93
2017-08-01T00:38:15.093Z,6.90
2017-08-01T00:40:42.641Z,7.20
2017-08-01T00:43:10.240Z,7.50
2017-08-01T00:45:37.782Z,8.23
2017-08-01T00:48:05.320Z,7.40
2017-08-01T00:50:32.916Z,7.00
2017-08-01T00:53:00.456Z,7.60
2017-08-01T00:55:27.994Z,7.70
2017-08-01T00:57:55.600Z,7.03
2017-08-01T01:00:23.138Z,7.10
2017-08-01T01:02:50.677Z,7.70
2017-08-01T01:05:18.280Z,7.53
2017-08-01T01:07:45.866Z,7.87
2017-08-01T01:10:13.429Z,8.30
2017-08-01T01:12:41.028Z,6.93
2017-08-01T01:15:08.608Z,8.63
2017-08-01T01:17:36.155Z,7.87
2017-08-01T01:20:03.780Z,8.30
2017-08-01T01:22:31.398Z,8.63
2017-08-01T01:24:58.957Z,7.87
2017-08-01T01:27:26.516Z,8.70
2017-08-01T01:29:54.101Z,8.10
2017-08-01T01:32:22.428Z,8.67
2017-08-01T01:34:49.993Z,7.47
2017-08-01T01:37:17.557Z,8.60
2017-08-01T01:39:45.206Z,8.43
2017-08-01T01:42:12.869Z,8.50
2017-08-01T01:44:40.402Z,7.53
2017-08-01T01:47:08.710Z,8.67
2017-08-01T01:49:36.325Z,9.13
2017-08-01T01:52:03.860Z,8.97
2017-08-01T01:54:31.400Z,8.80
2017-08-01T01:56:58.977Z,10.10
2017-08-01T01:59:26.517Z,9.57
2017-08-01T02:01:54.056Z,8.83
2017-08-01T02:04:21.813Z,8.87
2017-08-01T02:06:49.402Z,8.50
2017-08-01T02:09:16.978Z,8.80
2017-08-01T02:11:44.587Z,8.37
2017-08-01T02:14:12.916Z,8.43
2017-08-01T02:16:40.458Z,8.07
2017-08-01T02:19:08.029Z,7.73
2017-08-01T02:21:35.573Z,8.60
2017-08-01T02:24:03.126Z,8.50
2017-08-01T02:26:30.740Z,8.70
2017-08-01T02:28:58.281Z,8.67
2017-08-01T02:31:25.834Z,7.83
2017-08-01T02:33:53.417Z,8.83
2017-08-01T02:36:20.960Z,9.27
2017-08-01T02:38:48.996Z,9.40
2017-08-01T02:41:16.581Z,8.73
2017-08-01T02:43:44.140Z,8.90
2017-08-01T02:46:11.681Z,8.53
2017-08-01T02:48:39.289Z,9.93
2017-08-01T02:51:06.893Z,9.37
2017-08-01T02:53:34.438Z,9.43
2017-08-01T02:56:02.821Z,9.63
2017-08-01T02:58:30.367Z,8.20
2017-08-01T03:00:57.908Z,8.60
2017-08-01T03:03:25.482Z,8.30
2017-08-01T03:05:53.787Z,8.73
2017-08-01T03:08:21.328Z,8.27
2017-08-01T03:10:49.698Z,8.90
2017-08-01T03:13:18.005Z,8.83
2017-08-01T03:15:45.540Z,9.27
2017-08-01T03:18:13.112Z,8.07
2017-08-01T03:20:40.663Z,8.53
2017-08-01T03:23:08.204Z,7.77
2017-08-01T03:25:35.775Z,8.37
2017-08-01T03:28:03.362Z,8.13
2017-08-01T03:30:30.912Z,9.80
2017-08-01T03:32:58.564Z,8.60
2017-08-01T03:35:26.101Z,8.63
2017-08-01T03:37:53.641Z,9.17
2017-08-01T03:40:21.436Z,9.10
2017-08-01T03:42:48.972Z,9.20
2017-08-01T03:45:16.537Z,8.80
2017-08-01T03:47:44.108Z,8.57
2017-08-01T03:50:11.651Z,8.40
2017-08-01T03:52:39.278Z,8.73
2017-08-01T03:55:06.900Z,8.90
2017-08-01T03:57:34.440Z,8.30
2017-08-01T04:00:02.033Z,10.20
2017-08-01T04:02:29.645Z,8.23
2017-08-01T04:04:57.185Z,9.87
2017-08-01T04:07:24.768Z,8.70
2017-08-01T04:09:52.341Z,8.73
2017-08-01T04:12:19.916Z,9.90
2017-08-01T04:14:47.542Z,9.07
2017-08-01T04:17:15.305Z,8.37
2017-08-01T04:19:42.841Z,8.70
2017-08-01T04:22:10.377Z,8.60
2017-08-01T04:24:38.009Z,8.60
2017-08-01T04:27:05.573Z,8.43
2017-08-01T04:29:33.108Z,8.60
2017-08-01T04:32:00.676Z,9.10
2017-08-01T04:34:28.291Z,9.40
2017-08-01T04:36:55.865Z,8.30
2017-08-01T04:39:23.469Z,8.90
2017-08-01T04:41:51.237Z,10.30
2017-08-01T04:44:18.780Z,8.90
2017-08-01T04:46:46.340Z,8.90
2017-08-01T04:49:13.877Z,9.27
2017-08-01T04:51:41.417Z,9.77
2017-08-01T04:54:08.985Z,9.40
2017-08-01T04:56:36.524Z,9.43
2017-08-01T04:59:04.844Z,9.50
2017-08-01T05:01:32.485Z,9.47
2017-08-01T05:04:00.044Z,10.50
2017-08-01T05:06:27.581Z,9.50
2017-08-01T05:08:56.123Z,9.37
2017-08-01T05:11:23.668Z,9.30
2017-08-01T05:13:51.208Z,9.30
2017-08-01T05:16:18.789Z,9.23
2017-08-01T05:18:46.605Z,8.83
2017-08-01T05:21:14.153Z,8.80
2017-08-01T05:23:41.813Z,9.33
2017-08-01T05:26:09.369Z,8.57
2017-08-01T05:28:36.918Z,10.17
2017-08-01T05:31:04.493Z,9.40
2017-08-01T05:33:32.032Z,9.10
2017-08-01T05:35:59.623Z,9.00
2017-08-01T05:38:27.658Z,9.57
2017-08-01T05:40:55.287Z,8.87
2017-08-01T05:43:23.384Z,8.47
2017-08-01T05:45:51.031Z,9.60
2017-08-01T05:48:20.132Z,9.70
2017-08-01T05:50:47.864Z,8.90
2017-08-01T05:53:16.171Z,9.13
2017-08-01T05:55:43.831Z,9.30
2017-08-01T05:58:11.413Z,9.80
2017-08-01T06:00:39.081Z,8.97
2017-08-01T06:03:06.726Z,9.57
2017-08-01T06:05:34.323Z,8.63
2017-08-01T06:08:01.950Z,8.80
2017-08-01T06:10:29.533Z,7.67
2017-08-01T06:12:57.076Z,7.70
2017-08-01T06:15:24.692Z,6.90
2017-08-01T06:17:53.010Z,7.20
2017-08-01T06:20:20.570Z,6.97
2017-08-01T06:22:48.153Z,6.73
2017-08-01T06:25:15.697Z,6.87
2017-08-01T06:27:43.269Z,6.97
2017-08-01T06:30:11.456Z,5.23
2017-08-01T06:32:39.041Z,6.20
2017-08-01T06:35:07.368Z,5.87
2017-08-01T06:37:34.937Z,5.67
2017-08-01T06:40:02.468Z,5.60
2017-08-01T06:42:30.001Z,7.03
2017-08-01T06:44:57.897Z,5.33
2017-08-01T06:47:25.436Z,6.33
2017-08-01T06:49:52.984Z,5.57
2017-08-01T06:52:20.992Z,5.10
2017-08-01T06:54:49.257Z,5.40
2017-08-01T06:57:17.754Z,5.40
2017-08-01T06:59:45.324Z,5.20
2017-08-01T07:02:12.860Z,5.10
2017-08-01T07:04:40.466Z,5.60
2017-08-01T07:07:08.041Z,5.20
2017-08-01T07:09:36.375Z,4.70
2017-08-01T07:12:05.418Z,4.87
2017-08-01T07:14:35.565Z,4.53
2017-08-01T07:17:05.555Z,4.20
2017-08-01T07:19:33.942Z,4.73
2017-08-01T07:22:02.350Z,4.30
2017-08-01T07:24:30.708Z,3.87
2017-08-01T07:27:02.306Z,4.10
2017-08-01T07:29:29.917Z,3.60
2017-08-01T07:32:02.165Z,4.30
2017-08-01T07:34:29.766Z,3.60
2017-08-01T07:36:57.526Z,3.20
2017-08-01T07:39:26.218Z,3.47
2017-08-01T07:41:53.798Z,3.90
2017-08-01T07:44:24.001Z,4.50
2017-08-01T07:46:54.875Z,4.33
2017-08-01T07:49:22.489Z,3.60
2017-08-01T07:51:50.865Z,3.70
2017-08-01T07:56:56.968Z,3.20
2017-08-01T07:59:24.545Z,4.50
2017-08-01T08:01:52.089Z,3.60
2017-08-01T08:04:19.658Z,4.13
2017-08-01T08:06:48.672Z,3.60
2017-08-01T08:09:16.209Z,3.60
2017-08-01T08:11:51.487Z,3.57
2017-08-01T08:14:19.289Z,3.70
2017-08-01T08:16:46.841Z,3.53
2017-08-01T08:19:17.216Z,3.70
2017-08-01T08:21:44.788Z,2.90
2017-08-01T08:24:12.349Z,3.50
2017-08-01T08:26:39.968Z,2.90
2017-08-01T08:29:09.989Z,3.07
2017-08-01T08:31:37.557Z,2.80
2017-08-01T08:34:07.101Z,3.00
2017-08-01T08:39:09.341Z,3.67
2017-08-01T08:41:36.938Z,4.27
2017-08-01T08:44:04.472Z,3.10
2017-08-01T08:49:07.533Z,3.53
2017-08-01T08:51:35.094Z,3.70
2017-08-01T08:54:02.651Z,3.30
2017-08-01T08:56:30.310Z,3.03
2017-08-01T08:59:00.542Z,3.10
2017-08-01T09:01:29.061Z,3.40
2017-08-01T09:03:56.866Z,3.30
2017-08-01T09:06:24.489Z,3.23
2017-08-01T09:08:52.899Z,2.67
2017-08-01T09:14:14.965Z,2.30
2017-08-01T09:16:42.590Z,3.10
2017-08-01T09:19:10.185Z,2.63
2017-08-01T09:21:37.802Z,2.60
2017-08-01T09:24:05.384Z,3.07
2017-08-01T09:26:33.134Z,2.33
2017-08-01T09:29:00.694Z,2.93
2017-08-01T09:31:28.685Z,2.17
2017-08-01T09:33:56.248Z,3.37
2017-08-01T09:36:23.796Z,2.70
2017-08-01T09:38:51.369Z,2.27
2017-08-01T09:41:22.182Z,2.70
2017-08-01T09:43:50.533Z,3.00
2017-08-01T09:46:18.102Z,3.40
2017-08-01T09:48:45.664Z,2.80
2017-08-01T09:51:14.482Z,2.50
2017-08-01T09:53:42.092Z,2.60
2017-08-01T09:56:10.030Z,2.67
2017-08-01T09:58:37.578Z,2.73
2017-08-01T10:01:05.199Z,2.43
2017-08-01T10:03:32.759Z,2.90
2017-08-01T10:06:00.308Z,2.70
2017-08-01T10:08:27.918Z,2.90
2017-08-01T10:10:55.465Z,3.37
2017-08-01T10:13:23.032Z,3.33
2017-08-01T10:15:50.648Z,3.47
2017-08-01T10:18:18.948Z,4.07
2017-08-01T10:20:46.484Z,3.73
2017-08-01T10:23:14.808Z,4.00
2017-08-01T10:25:42.350Z,5.00
2017-08-01T10:28:09.933Z,5.10
2017-08-01T10:30:37.513Z,5.30
2017-08-01T10:33:05.048Z,5.67
2017-08-01T10:35:32.591Z,5.70
2017-08-01T10:38:00.224Z,5.80
2017-08-01T10:40:28.525Z,6.17
2017-08-01T10:42:56.065Z,6.00
2017-08-01T10:45:24.405Z,6.17
2017-08-01T10:47:51.939Z,6.30
2017-08-01T10:50:19.476Z,5.90
2017-08-01T10:52:47.676Z,6.77
2017-08-01T10:55:15.212Z,5.93
2017-08-01T10:57:42.757Z,6.57
2017-08-01T11:00:10.349Z,6.43
2017-08-01T11:02:37.905Z,6.47
2017-08-01T11:05:05.445Z,6.50
2017-08-01T11:07:33.021Z,6.33
2017-08-01T11:10:00.565Z,6.90
2017-08-01T11:12:28.106Z,7.10
2017-08-01T11:14:56.282Z,6.90
2017-08-01T11:17:23.829Z,6.53
2017-08-01T11:19:51.380Z,7.20
2017-08-01T11:22:19.025Z,6.73
2017-08-01T11:24:46.567Z,7.00
2017-08-01T11:27:14.100Z,6.37
2017-08-01T11:29:41.676Z,6.40
2017-08-01T11:32:09.251Z,6.90
2017-08-01T11:34:36.806Z,7.30
2017-08-01T11:37:04.389Z,7.30
2017-08-01T11:39:31.923Z,6.80
2017-08-01T11:41:59.460Z,6.73
2017-08-01T11:44:27.517Z,6.60
2017-08-01T11:46:55.056Z,6.80
2017-08-01T11:49:22.613Z,6.30
2017-08-01T11:51:50.181Z,6.93
2017-08-01T11:54:18.389Z,7.00
2017-08-01T11:56:45.941Z,6.60
2017-08-01T11:59:14.308Z,7.13
2017-08-01T12:01:42.609Z,7.40
2017-08-01T12:04:10.150Z,6.20
2017-08-01T12:06:38.493Z,6.23
2017-08-01T12:09:06.030Z,6.87
2017-08-01T12:11:33.569Z,6.13
2017-08-01T12:14:01.137Z,5.90
2017-08-01T12:16:28.677Z,5.57
2017-08-01T12:18:56.229Z,6.30
2017-08-01T12:21:23.852Z,6.30
2017-08-01T12:23:51.388Z,6.20
2017-08-01T12:26:19.028Z,6.10
2017-08-01T12:28:46.602Z,6.37
2017-08-01T12:31:14.144Z,6.40
2017-08-01T12:33:41.693Z,6.50
2017-08-01T12:36:09.257Z,6.87
2017-08-01T12:38:36.797Z,6.33
2017-08-01T12:41:04.341Z,6.10
2017-08-01T12:43:32.033Z,7.03
2017-08-01T12:45:59.762Z,6.23
2017-08-01T12:48:27.318Z,6.60
2017-08-01T12:50:55.425Z,6.20
2017-08-01T12:53:22.960Z,6.27
2017-08-01T12:55:50.605Z,7.00
2017-08-01T12:58:18.236Z,6.47
2017-08-01T13:00:46.309Z,6.40
2017-08-01T13:03:13.865Z,6.40
2017-08-01T13:05:41.473Z,7.20
2017-08-01T13:08:09.012Z,7.00
2017-08-01T13:10:36.653Z,6.50
2017-08-01T13:13:04.788Z,6.80
2017-08-01T13:15:33.101Z,6.47
2017-08-01T13:18:00.681Z,6.70
2017-08-01T13:20:28.266Z,6.87
2017-08-01T13:22:55.815Z,6.70
2017-08-01T13:25:23.357Z,6.37
2017-08-01T13:27:50.973Z,6.50
2017-08-01T13:30:18.509Z,6.30
2017-08-01T13:32:46.061Z,6.50
2017-08-01T13:35:13.672Z,6.37
2017-08-01T13:37:41.237Z,5.63
2017-08-01T13:40:08.782Z,6.33
2017-08-01T13:42:36.361Z,6.30
2017-08-01T13:45:03.908Z,7.00
2017-08-01T13:47:31.462Z,7.13
2017-08-01T13:49:59.205Z,6.83
2017-08-01T13:52:26.766Z,6.60
2017-08-01T13:54:54.305Z,7.10
2017-08-01T13:57:22.382Z,6.30
2017-08-01T13:59:49.921Z,6.63
2017-08-01T14:02:17.467Z,6.77
2017-08-01T14:04:45.041Z,6.40
2017-08-01T14:07:12.601Z,6.80
2017-08-01T14:09:40.241Z,6.47
2017-08-01T14:12:08.077Z,7.27
2017-08-01T14:14:36.397Z,7.07
2017-08-01T14:17:03.944Z,6.30
2017-08-01T14:19:31.517Z,6.30
2017-08-01T14:21:59.081Z,6.40
2017-08-01T14:24:26.620Z,6.93
2017-08-01T14:26:54.583Z,6.60
2017-08-01T14:29:22.144Z,6.50
2017-08-01T14:31:49.692Z,6.47
2017-08-01T14:34:17.296Z,7.53
2017-08-01T14:36:44.846Z,7.10
2017-08-01T14:39:12.404Z,6.30
2017-08-01T14:41:39.969Z,6.77
2017-08-01T14:44:07.526Z,6.70
2017-08-01T14:46:35.089Z,7.27
2017-08-01T14:49:02.666Z,6.83
2017-08-01T14:51:31.233Z,7.00
2017-08-01T14:53:58.790Z,7.00
2017-08-01T14:56:26.478Z,6.17
2017-08-01T14:58:54.465Z,7.07
2017-08-01T15:01:22.005Z,6.83
2017-08-01T15:03:49.576Z,7.77
2017-08-01T15:06:17.120Z,7.20
2017-08-01T15:08:44.661Z,7.07
2017-08-01T15:11:12.244Z,7.20
2017-08-01T15:13:39.781Z,7.60
2017-08-01T15:16:07.320Z,8.50
2017-08-01T15:18:35.233Z,7.77
2017-08-01T15:21:02.820Z,8.00
2017-08-01T15:23:30.369Z,7.93
2017-08-01T15:25:57.937Z,6.70
2017-08-01T15:28:26.251Z,7.80
2017-08-01T15:30:53.833Z,11.17
2017-08-01T15:33:21.402Z,9.47
2017-08-01T15:35:48.946Z,8.30
2017-08-01T15:38:16.489Z,8.57
2017-08-01T15:40:44.099Z,10.50
2017-08-01T15:43:11.644Z,14.40
2017-08-01T15:45:39.219Z,13.80
2017-08-01T15:48:06.793Z,9.90
2017-08-01T15:50:34.339Z,9.47
2017-08-01T15:53:01.876Z,7.50
2017-08-01T15:55:29.440Z,7.50
2017-08-01T15:57:57.246Z,7.10
2017-08-01T16:00:25.236Z,7.00
2017-08-01T16:02:52.926Z,6.40
2017-08-01T16:05:20.469Z,7.13
2017-08-01T16:07:48.021Z,8.50
2017-08-01T16:10:15.588Z,7.43
2017-08-01T16:12:43.124Z,7.57
2017-08-01T16:15:10.657Z,7.30
2017-08-01T16:17:38.220Z,7.80
2017-08-01T16:20:05.765Z,7.90
2017-08-01T16:22:33.304Z,7.90
2017-08-01T16:25:00.945Z,8.43
2017-08-01T16:27:28.483Z,7.67
2017-08-01T16:29:56.024Z,7.97
2017-08-01T16:32:23.650Z,7.70
2017-08-01T16:34:51.297Z,7.80
2017-08-01T16:37:18.842Z,8.37
2017-08-01T16:39:46.425Z,7.27
2017-08-01T16:42:13.965Z,7.30
2017-08-01T16:44:41.509Z,7.37
2017-08-01T16:47:09.889Z,8.10
2017-08-01T16:49:38.200Z,7.90
2017-08-01T16:52:05.745Z,7.40
2017-08-01T16:54:33.324Z,7.80
2017-08-01T16:57:00.874Z,8.23
2017-08-01T16:59:28.425Z,8.57
2017-08-01T17:01:56.414Z,7.33
2017-08-01T17:04:23.970Z,7.20
2017-08-01T17:06:51.513Z,6.93
2017-08-01T17:09:19.214Z,7.33
2017-08-01T17:11:46.765Z,8.20
2017-08-01T17:14:14.377Z,8.10
2017-08-01T17:16:42.709Z,7.40
2017-08-01T17:19:10.253Z,7.70
2017-08-01T17:21:37.796Z,8.50
2017-08-01T17:24:05.371Z,9.13
2017-08-01T17:26:32.977Z,9.57
2017-08-01T17:29:00.520Z,9.70
2017-08-01T17:31:28.140Z,9.40
2017-08-01T17:33:55.684Z,9.20
2017-08-01T17:36:23.233Z,9.87
2017-08-01T17:38:51.621Z,12.13
2017-08-01T17:41:19.176Z,15.13
2017-08-01T17:43:47.492Z,14.30
2017-08-01T17:46:15.069Z,14.33
2017-08-01T17:48:42.624Z,13.67
2017-08-01T17:51:10.168Z,11.70
2017-08-01T17:53:37.793Z,11.00
2017-08-01T17:56:05.350Z,10.67
2017-08-01T17:58:32.955Z,13.07
2017-08-01T18:01:00.529Z,11.20
2017-08-01T18:03:32.333Z,14.07
2017-08-01T18:05:59.897Z,12.67
2017-08-01T18:08:28.286Z,12.50
2017-08-01T18:10:56.449Z,11.63
2017-08-01T18:13:24.026Z,13.50
2017-08-01T18:15:52.224Z,12.13
2017-08-01T18:18:19.801Z,12.53
2017-08-01T18:20:47.352Z,11.30
2017-08-01T18:23:14.937Z,12.13
2017-08-01T18:25:42.488Z,11.80
2017-08-01T18:28:10.058Z,13.60
2017-08-01T18:30:37.629Z,12.53
2017-08-01T18:33:05.173Z,11.60
2017-08-01T18:35:32.712Z,11.57
2017-08-01T18:38:00.316Z,12.50
2017-08-01T18:40:27.865Z,11.40
2017-08-01T18:42:55.426Z,11.33
2017-08-01T18:45:23.009Z,12.10
2017-08-01T18:47:50.553Z,12.10
2017-08-01T18:50:18.104Z,12.13
2017-08-01T18:52:45.668Z,13.50
2017-08-01T18:55:13.217Z,12.70
2017-08-01T18:57:40.767Z,13.30
2017-08-01T19:00:08.383Z,11.47
2017-08-01T19:02:35.993Z,11.47
2017-08-01T19:05:03.973Z,13.20
2017-08-01T19:07:31.592Z,13.63
2017-08-01T19:09:59.137Z,14.27
2017-08-01T19:12:26.730Z,13.53
2017-08-01T19:14:54.372Z,13.70
2017-08-01T19:17:21.966Z,13.63
2017-08-01T19:19:50.467Z,12.63
2017-08-01T19:22:18.440Z,13.63
2017-08-01T19:24:47.487Z,13.67
2017-08-01T19:27:15.319Z,11.63
2017-08-01T19:29:42.981Z,11.43
2017-08-01T19:32:10.601Z,10.13
2017-08-01T19:34:38.294Z,11.20
2017-08-01T19:37:05.916Z,11.33
2017-08-01T19:39:33.485Z,11.70
2017-08-01T19:42:01.038Z,11.80
2017-08-01T19:44:28.689Z,12.67
2017-08-01T19:46:56.233Z,12.20
2017-08-01T19:49:23.772Z,13.83
2017-08-01T19:51:51.410Z,14.33
2017-08-01T19:54:18.958Z,14.13
2017-08-01T19:56:46.501Z,14.07
2017-08-01T19:59:14.069Z,15.60
2017-08-01T20:01:41.858Z,12.70
2017-08-01T20:04:10.135Z,13.60
2017-08-01T20:06:38.905Z,12.90
2017-08-01T20:09:06.590Z,12.10
2017-08-01T20:11:34.908Z,12.10
2017-08-01T20:14:02.538Z,12.10
2017-08-01T20:16:30.093Z,10.80
2017-08-01T20:18:57.683Z,10.60
2017-08-01T20:21:25.261Z,10.33
2017-08-01T20:23:52.810Z,10.00
2017-08-01T20:26:20.366Z,11.80
2017-08-01T20:28:48.021Z,10.50
2017-08-01T20:31:15.586Z,11.47
2017-08-01T20:33:43.134Z,11.70
2017-08-01T20:36:10.726Z,10.10
2017-08-01T20:38:38.270Z,9.83
2017-08-01T20:41:05.821Z,10.40
2017-08-01T20:43:34.468Z,10.80
2017-08-01T20:46:02.018Z,11.73
2017-08-01T20:48:29.594Z,11.00
2017-08-01T20:50:58.361Z,9.70
2017-08-01T20:53:25.934Z,9.93
2017-08-01T20:55:53.498Z,10.13
2017-08-01T20:58:21.871Z,10.47
2017-08-01T21:00:49.445Z,10.07
2017-08-01T21:03:16.989Z,10.40
2017-08-01T21:05:44.634Z,10.67
2017-08-01T21:08:12.761Z,11.40
2017-08-01T21:10:41.216Z,10.70
2017-08-01T21:13:08.826Z,10.07
2017-08-01T21:15:36.373Z,9.80
2017-08-01T21:18:03.918Z,9.83
2017-08-01T21:20:31.504Z,9.57
2017-08-01T21:22:59.049Z,9.70
2017-08-01T21:25:26.585Z,9.73
2017-08-01T21:27:54.152Z,9.27
2017-08-01T21:30:21.709Z,7.40
2017-08-01T21:32:49.253Z,7.87
2017-08-01T21:35:16.920Z,7.30
2017-08-01T21:37:44.457Z,8.30
2017-08-01T21:40:11.999Z,8.63
2017-08-01T21:42:39.570Z,8.30
2017-08-01T21:45:07.105Z,8.00
2017-08-01T21:47:34.644Z,7.43
2017-08-01T21:50:02.213Z,8.47
2017-08-01T21:52:29.755Z,7.53
2017-08-01T21:54:57.378Z,8.33
2017-08-01T21:57:25.217Z,7.90
2017-08-01T21:59:52.765Z,8.07
2017-08-01T22:02:20.308Z,8.50
2017-08-01T22:04:47.907Z,8.67
2017-08-01T22:07:15.457Z,8.70
2017-08-01T22:09:43.609Z,9.37
2017-08-01T22:12:11.190Z,11.33
2017-08-01T22:14:38.733Z,11.67
2017-08-01T22:17:06.289Z,12.77
2017-08-01T22:19:33.900Z,11.83
2017-08-01T22:22:01.445Z,12.73
2017-08-01T22:24:28.990Z,13.47
2017-08-01T22:26:57.329Z,11.37
2017-08-01T22:29:24.874Z,14.30
2017-08-01T22:31:53.187Z,12.33
2017-08-01T22:34:20.781Z,15.23
2017-08-01T22:36:48.330Z,13.73
2017-08-01T22:39:15.883Z,13.83
2017-08-01T22:41:43.557Z,12.93
2017-08-01T22:44:11.101Z,14.80
2017-08-01T22:46:38.661Z,14.93
2017-08-01T22:49:06.239Z,15.57
2017-08-01T22:51:33.800Z,15.33
2017-08-01T22:54:01.341Z,15.87
2017-08-01T22:56:28.923Z,15.53
2017-08-01T22:58:56.470Z,17.50
2017-08-01T23:01:24.017Z,14.53
2017-08-01T23:03:51.664Z,14.20
2017-08-01T23:06:19.206Z,16.53
2017-08-01T23:08:47.561Z,15.50
2017-08-01T23:11:16.069Z,15.87
2017-08-01T23:13:43.613Z,16.17
2017-08-01T23:16:11.153Z,14.80
2017-08-01T23:18:38.720Z,17.73
2017-08-01T23:21:06.265Z,16.23
2017-08-01T23:23:33.812Z,18.47
2017-08-01T23:26:01.429Z,20.20
2017-08-01T23:28:28.981Z,20.07
2017-08-01T23:30:56.520Z,20.33
2017-08-01T23:33:24.105Z,19.37
2017-08-01T23:35:51.648Z,20.87
2017-08-01T23:38:19.193Z,21.70
2017-08-01T23:40:46.761Z,22.00
2017-08-01T23:43:14.310Z,18.73
2017-08-01T23:45:41.852Z,20.50
2017-08-01T23:48:09.498Z,23.40
2017-08-01T23:50:37.077Z,22.13
2017-08-01T23:53:04.629Z,23.20
2017-08-01T23:55:32.234Z,25.90
2017-08-01T23:57:59.814Z,27.73
